Enter the Airport ICAO Code

Search by Airport or City

Current Weather

SKCL | Alfonso Bonilla Aragón International Airport

Cali, Colombia

Last Update 25 Minutes Ago

Partly Cloudy Sky

Temperature of 21 ºC

Light Winds from North

Temperature

21 ºC

Dew Point Temperature

18 ºC

Relative Humidity

83.08 %

Wind Direction

North (020º, Without Significant Variations)

Wind Velocity

7 km/h (04 kt)

Gusts

None

Visibility

Greater than 10 Kilometers

Sea Level Pressure

29.99 inHg (Inches of Mercury)

Layers of Clouds

5% to 30% of Sky Covered from 762 mts (2500 ft) Above Ground Level.

30% to 60% of Sky Covered from 9144 mts (30000 ft) Above Ground Level.

METAR SKCL 090300Z 02004KT 9999 FEW025 SCT300 21/18 A2999 NOSIG

Weather Forecast

SKCL | Alfonso Bonilla Aragón International Airport

Cali, Colombia

Forecast valid for the next 21 Hours

In the next hour it is expected the begining of:

Mostly Cloudy Sky

Light Winds from NorthEast

In 2 hours it is expected the begining of 3 hours with intermittent periods of:

Drizzle

In 7 hours it is expected the begining of 3 hours with intermittent periods of:

Mist

Maximum Temperature

No Data

Minimum Temperature

No Data

TAF SKCL 082230Z 0900/0924 32010KT 9999 SCT020 SCT100 BECMG 0902/0904 03004KT FEW017 BKN100 PROB40 TEMPO 0905/0908 5000 RADZ SCT017CB BKN070 TEMPO 0910/0913 5000 BR SCT010 TX31/0919Z TN19/0911Z